sensor_id;sensor_type;location;lat;lon;timestamp;P1;durP1;ratioP1;P2;durP2;ratioP2
36669;SDS011;22662;47.412;9.742;2022-08-25T00:01:34;2.38;;;2.17;;
36669;SDS011;22662;47.412;9.742;2022-08-25T00:04:03;2.50;;;2.30;;
36669;SDS011;22662;47.412;9.742;2022-08-25T00:06:31;3.38;;;2.28;;
36669;SDS011;22662;47.412;9.742;2022-08-25T00:08:57;2.08;;;1.98;;
36669;SDS011;22662;47.412;9.742;2022-08-25T00:11:25;2.63;;;2.05;;
36669;SDS011;22662;47.412;9.742;2022-08-25T00:13:55;2.40;;;1.92;;
36669;SDS011;22662;47.412;9.742;2022-08-25T00:16:25;2.20;;;2.00;;
36669;SDS011;22662;47.412;9.742;2022-08-25T00:18:54;2.17;;;1.88;;
36669;SDS011;22662;47.412;9.742;2022-08-25T00:21:22;2.47;;;2.00;;
36669;SDS011;22662;47.412;9.742;2022-08-25T00:23:49;2.03;;;1.90;;
36669;SDS011;22662;47.412;9.742;2022-08-25T00:26:15;2.20;;;2.00;;
36669;SDS011;22662;47.412;9.742;2022-08-25T00:28:42;3.10;;;2.28;;
36669;SDS011;22662;47.412;9.742;2022-08-25T00:31:13;2.10;;;1.88;;
36669;SDS011;22662;47.412;9.742;2022-08-25T00:33:46;3.40;;;1.95;;
36669;SDS011;22662;47.412;9.742;2022-08-25T00:36:13;2.40;;;2.20;;
36669;SDS011;22662;47.412;9.742;2022-08-25T00:38:40;2.67;;;2.20;;
36669;SDS011;22662;47.412;9.742;2022-08-25T00:41:08;2.42;;;2.13;;
36669;SDS011;22662;47.412;9.742;2022-08-25T00:46:07;2.30;;;2.10;;
36669;SDS011;22662;47.412;9.742;2022-08-25T00:48:34;3.40;;;2.00;;
36669;SDS011;22662;47.412;9.742;2022-08-25T00:51:00;3.53;;;2.13;;
36669;SDS011;22662;47.412;9.742;2022-08-25T00:53:28;2.85;;;2.30;;
36669;SDS011;22662;47.412;9.742;2022-08-25T00:55:55;4.22;;;2.25;;
36669;SDS011;22662;47.412;9.742;2022-08-25T00:58:23;2.42;;;2.20;;
36669;SDS011;22662;47.412;9.742;2022-08-25T01:00:53;5.20;;;2.17;;
36669;SDS011;22662;47.412;9.742;2022-08-25T01:03:22;2.40;;;2.20;;
36669;SDS011;22662;47.412;9.742;2022-08-25T01:42:57;2.60;;;2.40;;
36669;SDS011;22662;47.412;9.742;2022-08-25T01:45:39;4.22;;;2.78;;
36669;SDS011;22662;47.412;9.742;2022-08-25T01:48:07;3.63;;;2.50;;
36669;SDS011;22662;47.412;9.742;2022-08-25T01:50:33;2.63;;;2.30;;
36669;SDS011;22662;47.412;9.742;2022-08-25T01:53:03;2.75;;;2.50;;
36669;SDS011;22662;47.412;9.742;2022-08-25T01:55:35;3.00;;;2.27;;
36669;SDS011;22662;47.412;9.742;2022-08-25T02:00:49;2.50;;;2.30;;
36669;SDS011;22662;47.412;9.742;2022-08-25T02:03:18;2.80;;;2.35;;
36669;SDS011;22662;47.412;9.742;2022-08-25T02:05:44;2.20;;;2.03;;
36669;SDS011;22662;47.412;9.742;2022-08-25T02:08:11;2.58;;;2.38;;
36669;SDS011;22662;47.412;9.742;2022-08-25T02:10:37;2.63;;;2.40;;
36669;SDS011;22662;47.412;9.742;2022-08-25T02:13:04;2.88;;;2.20;;
36669;SDS011;22662;47.412;9.742;2022-08-25T02:15:31;2.60;;;2.15;;
36669;SDS011;22662;47.412;9.742;2022-08-25T02:17:56;3.00;;;2.35;;
36669;SDS011;22662;47.412;9.742;2022-08-25T02:20:22;3.10;;;2.50;;
36669;SDS011;22662;47.412;9.742;2022-08-25T02:22:51;2.53;;;2.33;;
36669;SDS011;22662;47.412;9.742;2022-08-25T02:25:18;2.30;;;2.10;;
36669;SDS011;22662;47.412;9.742;2022-08-25T02:27:44;2.47;;;2.28;;
36669;SDS011;22662;47.412;9.742;2022-08-25T02:30:14;3.00;;;2.45;;
36669;SDS011;22662;47.412;9.742;2022-08-25T02:32:41;2.72;;;2.00;;
36669;SDS011;22662;47.412;9.742;2022-08-25T02:35:07;2.88;;;2.30;;
36669;SDS011;22662;47.412;9.742;2022-08-25T02:37:33;2.65;;;2.30;;
36669;SDS011;22662;47.412;9.742;2022-08-25T02:40:00;3.08;;;2.50;;
36669;SDS011;22662;47.412;9.742;2022-08-25T02:42:26;2.47;;;2.28;;
36669;SDS011;22662;47.412;9.742;2022-08-25T02:44:52;4.10;;;2.63;;
36669;SDS011;22662;47.412;9.742;2022-08-25T02:47:18;2.30;;;2.10;;
36669;SDS011;22662;47.412;9.742;2022-08-25T02:49:44;2.50;;;2.30;;
36669;SDS011;22662;47.412;9.742;2022-08-25T02:52:10;2.45;;;2.25;;
36669;SDS011;22662;47.412;9.742;2022-08-25T02:54:36;2.50;;;2.20;;
36669;SDS011;22662;47.412;9.742;2022-08-25T02:57:02;2.28;;;2.08;;
36669;SDS011;22662;47.412;9.742;2022-08-25T02:59:28;3.72;;;2.55;;
36669;SDS011;22662;47.412;9.742;2022-08-25T03:01:54;2.40;;;2.20;;
36669;SDS011;22662;47.412;9.742;2022-08-25T03:04:20;3.97;;;2.63;;
36669;SDS011;22662;47.412;9.742;2022-08-25T03:06:46;3.03;;;2.40;;
36669;SDS011;22662;47.412;9.742;2022-08-25T03:09:12;2.40;;;2.20;;
36669;SDS011;22662;47.412;9.742;2022-08-25T03:11:38;3.35;;;2.33;;
36669;SDS011;22662;47.412;9.742;2022-08-25T03:14:04;3.22;;;2.55;;
36669;SDS011;22662;47.412;9.742;2022-08-25T03:16:31;2.72;;;2.28;;
36669;SDS011;22662;47.412;9.742;2022-08-25T03:18:57;3.13;;;2.45;;
36669;SDS011;22662;47.412;9.742;2022-08-25T03:21:24;3.50;;;2.22;;
36669;SDS011;22662;47.412;9.742;2022-08-25T03:23:50;2.75;;;2.55;;
36669;SDS011;22662;47.412;9.742;2022-08-25T03:26:16;3.63;;;2.63;;
36669;SDS011;22662;47.412;9.742;2022-08-25T03:29:00;2.88;;;2.58;;
36669;SDS011;22662;47.412;9.742;2022-08-25T03:31:30;2.90;;;2.60;;
36669;SDS011;22662;47.412;9.742;2022-08-25T03:33:57;3.05;;;2.53;;
36669;SDS011;22662;47.412;9.742;2022-08-25T03:36:24;2.80;;;2.50;;
36669;SDS011;22662;47.412;9.742;2022-08-25T03:38:51;2.95;;;2.60;;
36669;SDS011;22662;47.412;9.742;2022-08-25T03:41:24;3.38;;;2.63;;
36669;SDS011;22662;47.412;9.742;2022-08-25T03:43:56;2.92;;;2.55;;
36669;SDS011;22662;47.412;9.742;2022-08-25T03:46:28;2.70;;;2.50;;
36669;SDS011;22662;47.412;9.742;2022-08-25T03:48:56;2.92;;;2.60;;
36669;SDS011;22662;47.412;9.742;2022-08-25T03:51:25;2.78;;;2.58;;
36669;SDS011;22662;47.412;9.742;2022-08-25T03:53:57;2.50;;;2.30;;
36669;SDS011;22662;47.412;9.742;2022-08-25T03:56:25;2.85;;;2.65;;
36669;SDS011;22662;47.412;9.742;2022-08-25T03:58:51;2.85;;;2.63;;
36669;SDS011;22662;47.412;9.742;2022-08-25T04:01:18;2.90;;;2.55;;
36669;SDS011;22662;47.412;9.742;2022-08-25T04:03:44;3.85;;;2.53;;
36669;SDS011;22662;47.412;9.742;2022-08-25T04:06:10;2.75;;;2.50;;
36669;SDS011;22662;47.412;9.742;2022-08-25T04:08:37;3.33;;;2.45;;
36669;SDS011;22662;47.412;9.742;2022-08-25T04:11:04;3.00;;;2.55;;
36669;SDS011;22662;47.412;9.742;2022-08-25T04:13:31;3.00;;;2.30;;
36669;SDS011;22662;47.412;9.742;2022-08-25T04:15:57;3.33;;;2.50;;
36669;SDS011;22662;47.412;9.742;2022-08-25T04:18:23;2.92;;;2.55;;
36669;SDS011;22662;47.412;9.742;2022-08-25T04:20:49;3.30;;;3.00;;
36669;SDS011;22662;47.412;9.742;2022-08-25T04:23:14;4.13;;;2.70;;
36669;SDS011;22662;47.412;9.742;2022-08-25T04:25:40;3.97;;;3.10;;
36669;SDS011;22662;47.412;9.742;2022-08-25T04:28:07;3.35;;;3.10;;
36669;SDS011;22662;47.412;9.742;2022-08-25T04:30:34;4.10;;;3.00;;
36669;SDS011;22662;47.412;9.742;2022-08-25T04:33:00;3.45;;;3.15;;
36669;SDS011;22662;47.412;9.742;2022-08-25T04:35:26;4.65;;;2.90;;
36669;SDS011;22662;47.412;9.742;2022-08-25T04:37:51;4.18;;;3.00;;
36669;SDS011;22662;47.412;9.742;2022-08-25T04:40:17;4.68;;;3.10;;
36669;SDS011;22662;47.412;9.742;2022-08-25T04:42:44;3.22;;;2.70;;
36669;SDS011;22662;47.412;9.742;2022-08-25T04:45:10;3.30;;;2.67;;
36669;SDS011;22662;47.412;9.742;2022-08-25T04:47:36;3.30;;;2.53;;
36669;SDS011;22662;47.412;9.742;2022-08-25T04:50:04;3.00;;;2.80;;
36669;SDS011;22662;47.412;9.742;2022-08-25T04:52:30;3.83;;;3.03;;
36669;SDS011;22662;47.412;9.742;2022-08-25T04:54:56;4.00;;;2.90;;
36669;SDS011;22662;47.412;9.742;2022-08-25T04:57:22;5.07;;;3.15;;
36669;SDS011;22662;47.412;9.742;2022-08-25T04:59:48;3.40;;;3.10;;
36669;SDS011;22662;47.412;9.742;2022-08-25T05:02:14;3.75;;;3.45;;
36669;SDS011;22662;47.412;9.742;2022-08-25T05:04:40;4.07;;;3.50;;
36669;SDS011;22662;47.412;9.742;2022-08-25T05:07:06;3.85;;;3.30;;
36669;SDS011;22662;47.412;9.742;2022-08-25T05:09:33;3.85;;;3.17;;
36669;SDS011;22662;47.412;9.742;2022-08-25T05:12:00;3.78;;;3.00;;
36669;SDS011;22662;47.412;9.742;2022-08-25T05:14:26;4.20;;;3.00;;
36669;SDS011;22662;47.412;9.742;2022-08-25T05:16:52;3.92;;;3.50;;
36669;SDS011;22662;47.412;9.742;2022-08-25T05:19:19;5.38;;;3.58;;
36669;SDS011;22662;47.412;9.742;2022-08-25T05:21:45;7.15;;;4.18;;
36669;SDS011;22662;47.412;9.742;2022-08-25T05:24:11;5.88;;;4.22;;
36669;SDS011;22662;47.412;9.742;2022-08-25T05:26:37;6.68;;;4.53;;
36669;SDS011;22662;47.412;9.742;2022-08-25T05:29:03;5.55;;;4.10;;
36669;SDS011;22662;47.412;9.742;2022-08-25T05:31:30;3.95;;;3.60;;
36669;SDS011;22662;47.412;9.742;2022-08-25T05:33:57;5.85;;;4.25;;
36669;SDS011;22662;47.412;9.742;2022-08-25T05:36:25;4.65;;;4.15;;
36669;SDS011;22662;47.412;9.742;2022-08-25T05:38:52;5.95;;;4.50;;
36669;SDS011;22662;47.412;9.742;2022-08-25T05:41:19;5.20;;;4.15;;
36669;SDS011;22662;47.412;9.742;2022-08-25T05:43:47;4.80;;;3.47;;
36669;SDS011;22662;47.412;9.742;2022-08-25T05:46:14;5.03;;;3.80;;
36669;SDS011;22662;47.412;9.742;2022-08-25T05:48:41;4.20;;;3.50;;
36669;SDS011;22662;47.412;9.742;2022-08-25T05:51:08;4.55;;;3.25;;
36669;SDS011;22662;47.412;9.742;2022-08-25T05:53:36;4.25;;;3.33;;
36669;SDS011;22662;47.412;9.742;2022-08-25T05:56:03;5.13;;;3.15;;
36669;SDS011;22662;47.412;9.742;2022-08-25T05:58:29;3.88;;;2.83;;
36669;SDS011;22662;47.412;9.742;2022-08-25T06:00:56;3.78;;;2.60;;
36669;SDS011;22662;47.412;9.742;2022-08-25T06:03:43;3.78;;;2.67;;
36669;SDS011;22662;47.412;9.742;2022-08-25T06:06:09;2.70;;;2.38;;
36669;SDS011;22662;47.412;9.742;2022-08-25T06:08:35;5.13;;;2.20;;
36669;SDS011;22662;47.412;9.742;2022-08-25T06:11:01;2.10;;;1.90;;
36669;SDS011;22662;47.412;9.742;2022-08-25T06:13:26;3.60;;;2.25;;
36669;SDS011;22662;47.412;9.742;2022-08-25T06:15:56;3.40;;;2.55;;
36669;SDS011;22662;47.412;9.742;2022-08-25T06:18:22;4.07;;;2.70;;
36669;SDS011;22662;47.412;9.742;2022-08-25T06:20:48;6.45;;;2.95;;
36669;SDS011;22662;47.412;9.742;2022-08-25T06:23:14;4.18;;;3.28;;
36669;SDS011;22662;47.412;9.742;2022-08-25T06:25:43;6.38;;;3.50;;
36669;SDS011;22662;47.412;9.742;2022-08-25T06:28:14;3.30;;;3.00;;
36669;SDS011;22662;47.412;9.742;2022-08-25T06:30:39;4.80;;;3.35;;
36669;SDS011;22662;47.412;9.742;2022-08-25T06:33:05;4.38;;;3.05;;
36669;SDS011;22662;47.412;9.742;2022-08-25T06:35:31;3.47;;;3.17;;
36669;SDS011;22662;47.412;9.742;2022-08-25T06:37:57;3.95;;;3.47;;
36669;SDS011;22662;47.412;9.742;2022-08-25T06:40:22;4.75;;;3.30;;
36669;SDS011;22662;47.412;9.742;2022-08-25T06:42:50;5.07;;;3.47;;
36669;SDS011;22662;47.412;9.742;2022-08-25T06:45:16;5.00;;;2.97;;
36669;SDS011;22662;47.412;9.742;2022-08-25T06:47:42;3.58;;;3.28;;
36669;SDS011;22662;47.412;9.742;2022-08-25T06:50:08;3.88;;;2.92;;
36669;SDS011;22662;47.412;9.742;2022-08-25T06:52:34;3.35;;;2.78;;
36669;SDS011;22662;47.412;9.742;2022-08-25T06:55:01;3.78;;;2.95;;
36669;SDS011;22662;47.412;9.742;2022-08-25T06:57:27;2.55;;;2.35;;
36669;SDS011;22662;47.412;9.742;2022-08-25T06:59:53;2.70;;;2.50;;
36669;SDS011;22662;47.412;9.742;2022-08-25T07:02:19;2.88;;;2.63;;
36669;SDS011;22662;47.412;9.742;2022-08-25T07:04:45;3.17;;;2.83;;
36669;SDS011;22662;47.412;9.742;2022-08-25T07:07:10;2.95;;;2.72;;
36669;SDS011;22662;47.412;9.742;2022-08-25T07:09:36;5.22;;;2.90;;
36669;SDS011;22662;47.412;9.742;2022-08-25T07:12:02;3.10;;;2.80;;
36669;SDS011;22662;47.412;9.742;2022-08-25T07:14:29;3.15;;;2.65;;
36669;SDS011;22662;47.412;9.742;2022-08-25T07:16:55;2.88;;;2.67;;
36669;SDS011;22662;47.412;9.742;2022-08-25T07:19:22;4.88;;;2.70;;
36669;SDS011;22662;47.412;9.742;2022-08-25T07:21:49;3.90;;;3.10;;
36669;SDS011;22662;47.412;9.742;2022-08-25T07:24:16;4.45;;;3.13;;
36669;SDS011;22662;47.412;9.742;2022-08-25T07:26:42;3.08;;;2.67;;
36669;SDS011;22662;47.412;9.742;2022-08-25T07:29:11;7.72;;;3.05;;
36669;SDS011;22662;47.412;9.742;2022-08-25T07:31:40;4.43;;;2.78;;
36669;SDS011;22662;47.412;9.742;2022-08-25T07:34:06;3.22;;;2.92;;
36669;SDS011;22662;47.412;9.742;2022-08-25T07:36:50;5.28;;;2.88;;
36669;SDS011;22662;47.412;9.742;2022-08-25T07:39:16;3.20;;;2.90;;
36669;SDS011;22662;47.412;9.742;2022-08-25T07:41:43;5.78;;;2.72;;
36669;SDS011;22662;47.412;9.742;2022-08-25T07:44:09;5.55;;;2.80;;
36669;SDS011;22662;47.412;9.742;2022-08-25T07:46:36;4.43;;;3.17;;
36669;SDS011;22662;47.412;9.742;2022-08-25T07:49:02;4.60;;;3.30;;
36669;SDS011;22662;47.412;9.742;2022-08-25T07:51:29;5.63;;;2.70;;
36669;SDS011;22662;47.412;9.742;2022-08-25T07:53:55;5.32;;;3.03;;
36669;SDS011;22662;47.412;9.742;2022-08-25T07:56:21;3.47;;;3.10;;
36669;SDS011;22662;47.412;9.742;2022-08-25T07:58:47;3.88;;;3.00;;
36669;SDS011;22662;47.412;9.742;2022-08-25T08:01:14;4.03;;;3.28;;
36669;SDS011;22662;47.412;9.742;2022-08-25T08:03:45;5.47;;;3.47;;
36669;SDS011;22662;47.412;9.742;2022-08-25T08:06:16;4.13;;;3.15;;
36669;SDS011;22662;47.412;9.742;2022-08-25T08:08:44;4.38;;;3.60;;
36669;SDS011;22662;47.412;9.742;2022-08-25T08:13:42;4.25;;;3.30;;
36669;SDS011;22662;47.412;9.742;2022-08-25T08:16:12;5.13;;;3.20;;
36669;SDS011;22662;47.412;9.742;2022-08-25T08:18:40;4.43;;;3.45;;
36669;SDS011;22662;47.412;9.742;2022-08-25T08:21:11;3.42;;;3.10;;
36669;SDS011;22662;47.412;9.742;2022-08-25T08:23:38;4.35;;;3.15;;
36669;SDS011;22662;47.412;9.742;2022-08-25T08:26:04;5.38;;;3.47;;
36669;SDS011;22662;47.412;9.742;2022-08-25T08:28:30;3.97;;;3.17;;
36669;SDS011;22662;47.412;9.742;2022-08-25T08:30:56;3.60;;;2.97;;
36669;SDS011;22662;47.412;9.742;2022-08-25T08:33:22;3.80;;;3.20;;
36669;SDS011;22662;47.412;9.742;2022-08-25T08:35:58;4.82;;;2.97;;
36669;SDS011;22662;47.412;9.742;2022-08-25T08:38:30;3.00;;;2.80;;
36669;SDS011;22662;47.412;9.742;2022-08-25T08:41:04;4.03;;;2.83;;
36669;SDS011;22662;47.412;9.742;2022-08-25T08:44:12;3.70;;;3.28;;
36669;SDS011;22662;47.412;9.742;2022-08-25T08:46:56;3.85;;;3.10;;
36669;SDS011;22662;47.412;9.742;2022-08-25T08:52:03;3.42;;;3.13;;
36669;SDS011;22662;47.412;9.742;2022-08-25T08:54:32;4.57;;;2.83;;
36669;SDS011;22662;47.412;9.742;2022-08-25T08:57:03;3.65;;;2.60;;
36669;SDS011;22662;47.412;9.742;2022-08-25T08:59:48;4.43;;;2.80;;
36669;SDS011;22662;47.412;9.742;2022-08-25T09:02:34;4.25;;;3.25;;
36669;SDS011;22662;47.412;9.742;2022-08-25T09:05:11;3.25;;;2.83;;
36669;SDS011;22662;47.412;9.742;2022-08-25T09:07:40;3.20;;;2.90;;
36669;SDS011;22662;47.412;9.742;2022-08-25T09:10:13;4.05;;;2.72;;
36669;SDS011;22662;47.412;9.742;2022-08-25T09:26:42;4.20;;;2.50;;
36669;SDS011;22662;47.412;9.742;2022-08-25T09:29:21;6.57;;;2.80;;
36669;SDS011;22662;47.412;9.742;2022-08-25T09:31:48;6.97;;;3.08;;
36669;SDS011;22662;47.412;9.742;2022-08-25T09:34:19;3.20;;;2.88;;
36669;SDS011;22662;47.412;9.742;2022-08-25T09:36:48;3.00;;;2.67;;
36669;SDS011;22662;47.412;9.742;2022-08-25T09:39:17;6.32;;;3.30;;
36669;SDS011;22662;47.412;9.742;2022-08-25T09:44:25;5.03;;;3.03;;
36669;SDS011;22662;47.412;9.742;2022-08-25T09:46:56;2.70;;;2.50;;
36669;SDS011;22662;47.412;9.742;2022-08-25T09:49:33;5.03;;;3.78;;
36669;SDS011;22662;47.412;9.742;2022-08-25T09:57:50;3.30;;;2.90;;
36669;SDS011;22662;47.412;9.742;2022-08-25T10:11:38;3.25;;;2.95;;
36669;SDS011;22662;47.412;9.742;2022-08-25T10:14:05;4.88;;;3.17;;
36669;SDS011;22662;47.412;9.742;2022-08-25T10:16:50;7.40;;;4.30;;
36669;SDS011;22662;47.412;9.742;2022-08-25T10:21:46;5.75;;;3.88;;
36669;SDS011;22662;47.412;9.742;2022-08-25T10:24:36;4.90;;;3.63;;
36669;SDS011;22662;47.412;9.742;2022-08-25T10:27:09;3.60;;;3.20;;
36669;SDS011;22662;47.412;9.742;2022-08-25T10:35:22;5.25;;;3.97;;
36669;SDS011;22662;47.412;9.742;2022-08-25T10:38:21;5.68;;;4.00;;
36669;SDS011;22662;47.412;9.742;2022-08-25T10:46:34;3.72;;;3.38;;
36669;SDS011;22662;47.412;9.742;2022-08-25T10:57:01;3.72;;;3.33;;
36669;SDS011;22662;47.412;9.742;2022-08-25T10:59:47;4.20;;;3.42;;
36669;SDS011;22662;47.412;9.742;2022-08-25T11:05:07;5.03;;;3.80;;
36669;SDS011;22662;47.412;9.742;2022-08-25T11:07:41;3.90;;;3.50;;
36669;SDS011;22662;47.412;9.742;2022-08-25T11:10:12;4.07;;;3.67;;
36669;SDS011;22662;47.412;9.742;2022-08-25T11:12:44;4.30;;;3.90;;
36669;SDS011;22662;47.412;9.742;2022-08-25T11:15:20;4.60;;;4.20;;
36669;SDS011;22662;47.412;9.742;2022-08-25T11:17:52;4.30;;;3.88;;
36669;SDS011;22662;47.412;9.742;2022-08-25T11:20:32;4.72;;;4.10;;
36669;SDS011;22662;47.412;9.742;2022-08-25T11:25:40;4.18;;;3.83;;
36669;SDS011;22662;47.412;9.742;2022-08-25T11:28:30;4.82;;;4.43;;
36669;SDS011;22662;47.412;9.742;2022-08-25T11:30:55;4.80;;;3.78;;
36669;SDS011;22662;47.412;9.742;2022-08-25T11:33:24;5.75;;;4.80;;
36669;SDS011;22662;47.412;9.742;2022-08-25T11:35:56;4.68;;;4.28;;
36669;SDS011;22662;47.412;9.742;2022-08-25T11:41:02;7.93;;;4.32;;
36669;SDS011;22662;47.412;9.742;2022-08-25T11:46:19;4.10;;;3.55;;
36669;SDS011;22662;47.412;9.742;2022-08-25T11:51:56;5.97;;;3.80;;
36669;SDS011;22662;47.412;9.742;2022-08-25T11:54:23;4.22;;;3.83;;
36669;SDS011;22662;47.412;9.742;2022-08-25T11:56:56;7.22;;;4.13;;
36669;SDS011;22662;47.412;9.742;2022-08-25T12:07:56;3.80;;;3.50;;
36669;SDS011;22662;47.412;9.742;2022-08-25T12:16:05;4.07;;;3.58;;
36669;SDS011;22662;47.412;9.742;2022-08-25T12:23:38;5.07;;;3.45;;
36669;SDS011;22662;47.412;9.742;2022-08-25T12:26:32;4.30;;;3.00;;
36669;SDS011;22662;47.412;9.742;2022-08-25T12:29:08;4.03;;;3.60;;
36669;SDS011;22662;47.412;9.742;2022-08-25T12:37:03;5.15;;;3.20;;
36669;SDS011;22662;47.412;9.742;2022-08-25T12:39:44;4.30;;;3.03;;
36669;SDS011;22662;47.412;9.742;2022-08-25T12:45:08;4.82;;;3.20;;
36669;SDS011;22662;47.412;9.742;2022-08-25T12:47:41;6.65;;;3.30;;
36669;SDS011;22662;47.412;9.742;2022-08-25T12:52:58;3.85;;;2.90;;
36669;SDS011;22662;47.412;9.742;2022-08-25T12:55:36;4.38;;;3.05;;
36669;SDS011;22662;47.412;9.742;2022-08-25T12:58:04;4.43;;;3.33;;
36669;SDS011;22662;47.412;9.742;2022-08-25T13:00:36;4.05;;;3.35;;
36669;SDS011;22662;47.412;9.742;2022-08-25T13:11:08;2.90;;;2.60;;
36669;SDS011;22662;47.412;9.742;2022-08-25T13:13:49;5.43;;;2.97;;
36669;SDS011;22662;47.412;9.742;2022-08-25T13:16:22;3.30;;;3.00;;
36669;SDS011;22662;47.412;9.742;2022-08-25T13:18:51;3.53;;;2.85;;
36669;SDS011;22662;47.412;9.742;2022-08-25T13:21:27;5.80;;;3.13;;
36669;SDS011;22662;47.412;9.742;2022-08-25T13:24:13;3.47;;;2.90;;
36669;SDS011;22662;47.412;9.742;2022-08-25T13:26:53;2.97;;;2.65;;
36669;SDS011;22662;47.412;9.742;2022-08-25T13:29:23;3.65;;;2.78;;
36669;SDS011;22662;47.412;9.742;2022-08-25T13:31:59;3.50;;;2.72;;
36669;SDS011;22662;47.412;9.742;2022-08-25T13:34:34;4.43;;;2.72;;
36669;SDS011;22662;47.412;9.742;2022-08-25T13:40:10;3.83;;;2.80;;
36669;SDS011;22662;47.412;9.742;2022-08-25T13:42:44;4.30;;;2.78;;
36669;SDS011;22662;47.412;9.742;2022-08-25T13:45:13;4.03;;;2.58;;
36669;SDS011;22662;47.412;9.742;2022-08-25T13:47:42;3.10;;;2.80;;
36669;SDS011;22662;47.412;9.742;2022-08-25T13:52:52;4.00;;;2.30;;
36669;SDS011;22662;47.412;9.742;2022-08-25T13:55:19;3.15;;;2.22;;
36669;SDS011;22662;47.412;9.742;2022-08-25T13:57:47;4.70;;;2.60;;
36669;SDS011;22662;47.412;9.742;2022-08-25T14:00:23;2.83;;;2.60;;
36669;SDS011;22662;47.412;9.742;2022-08-25T14:02:52;3.85;;;2.75;;
36669;SDS011;22662;47.412;9.742;2022-08-25T14:05:38;3.83;;;2.72;;
36669;SDS011;22662;47.412;9.742;2022-08-25T14:08:07;4.60;;;2.35;;
36669;SDS011;22662;47.412;9.742;2022-08-25T14:11:08;3.10;;;2.80;;
36669;SDS011;22662;47.412;9.742;2022-08-25T14:13:58;3.43;;;2.57;;
36669;SDS011;22662;47.412;9.742;2022-08-25T14:16:25;3.72;;;2.78;;
36669;SDS011;22662;47.412;9.742;2022-08-25T14:18:51;2.92;;;2.60;;
36669;SDS011;22662;47.412;9.742;2022-08-25T14:21:21;4.45;;;2.80;;
36669;SDS011;22662;47.412;9.742;2022-08-25T14:23:52;3.47;;;2.60;;
36669;SDS011;22662;47.412;9.742;2022-08-25T14:26:22;3.13;;;2.63;;
36669;SDS011;22662;47.412;9.742;2022-08-25T14:28:48;3.60;;;2.90;;
36669;SDS011;22662;47.412;9.742;2022-08-25T14:31:28;3.75;;;2.65;;
36669;SDS011;22662;47.412;9.742;2022-08-25T14:33:58;3.30;;;2.78;;
36669;SDS011;22662;47.412;9.742;2022-08-25T14:36:27;4.00;;;2.70;;
36669;SDS011;22662;47.412;9.742;2022-08-25T14:38:55;4.38;;;2.90;;
36669;SDS011;22662;47.412;9.742;2022-08-25T14:41:21;3.13;;;2.83;;
36669;SDS011;22662;47.412;9.742;2022-08-25T14:43:48;3.95;;;2.72;;
36669;SDS011;22662;47.412;9.742;2022-08-25T14:48:52;5.00;;;3.05;;
36669;SDS011;22662;47.412;9.742;2022-08-25T14:51:21;5.10;;;3.05;;
36669;SDS011;22662;47.412;9.742;2022-08-25T14:53:48;3.35;;;2.70;;
36669;SDS011;22662;47.412;9.742;2022-08-25T14:56:15;4.22;;;2.70;;
36669;SDS011;22662;47.412;9.742;2022-08-25T14:58:40;3.10;;;2.78;;
36669;SDS011;22662;47.412;9.742;2022-08-25T15:01:10;3.08;;;2.35;;
36669;SDS011;22662;47.412;9.742;2022-08-25T15:03:38;2.58;;;2.10;;
36669;SDS011;22662;47.412;9.742;2022-08-25T15:06:06;3.20;;;2.70;;
36669;SDS011;22662;47.412;9.742;2022-08-25T15:08:34;3.83;;;2.70;;
36669;SDS011;22662;47.412;9.742;2022-08-25T15:11:18;2.75;;;2.55;;
36669;SDS011;22662;47.412;9.742;2022-08-25T15:13:44;3.75;;;2.65;;
36669;SDS011;22662;47.412;9.742;2022-08-25T15:16:21;3.20;;;2.40;;
36669;SDS011;22662;47.412;9.742;2022-08-25T15:18:49;3.47;;;2.75;;
36669;SDS011;22662;47.412;9.742;2022-08-25T15:21:16;4.82;;;2.80;;
36669;SDS011;22662;47.412;9.742;2022-08-25T15:23:41;3.65;;;2.42;;
36669;SDS011;22662;47.412;9.742;2022-08-25T15:26:08;2.83;;;2.40;;
36669;SDS011;22662;47.412;9.742;2022-08-25T15:28:38;4.68;;;2.88;;
36669;SDS011;22662;47.412;9.742;2022-08-25T15:31:06;2.67;;;2.30;;
36669;SDS011;22662;47.412;9.742;2022-08-25T15:33:32;3.00;;;2.60;;
36669;SDS011;22662;47.412;9.742;2022-08-25T15:35:58;3.20;;;2.90;;
36669;SDS011;22662;47.412;9.742;2022-08-25T15:38:24;4.20;;;2.47;;
36669;SDS011;22662;47.412;9.742;2022-08-25T15:40:49;3.28;;;2.90;;
36669;SDS011;22662;47.412;9.742;2022-08-25T15:43:15;12.05;;;2.67;;
36669;SDS011;22662;47.412;9.742;2022-08-25T15:45:41;3.22;;;2.92;;
36669;SDS011;22662;47.412;9.742;2022-08-25T15:48:07;2.47;;;2.28;;
36669;SDS011;22662;47.412;9.742;2022-08-25T15:50:33;2.72;;;2.33;;
36669;SDS011;22662;47.412;9.742;2022-08-25T15:52:58;3.90;;;2.47;;
36669;SDS011;22662;47.412;9.742;2022-08-25T15:55:24;5.65;;;2.85;;
36669;SDS011;22662;47.412;9.742;2022-08-25T15:57:51;3.53;;;2.50;;
36669;SDS011;22662;47.412;9.742;2022-08-25T16:00:17;4.85;;;3.17;;
36669;SDS011;22662;47.412;9.742;2022-08-25T16:02:44;3.30;;;2.75;;
36669;SDS011;22662;47.412;9.742;2022-08-25T16:05:10;4.03;;;2.80;;
36669;SDS011;22662;47.412;9.742;2022-08-25T16:07:35;4.70;;;2.63;;
36669;SDS011;22662;47.412;9.742;2022-08-25T16:10:03;3.17;;;2.88;;
36669;SDS011;22662;47.412;9.742;2022-08-25T16:12:29;4.10;;;3.05;;
36669;SDS011;22662;47.412;9.742;2022-08-25T16:14:55;4.00;;;2.80;;
36669;SDS011;22662;47.412;9.742;2022-08-25T16:17:21;3.15;;;2.80;;
36669;SDS011;22662;47.412;9.742;2022-08-25T16:19:47;4.43;;;2.60;;
36669;SDS011;22662;47.412;9.742;2022-08-25T16:22:13;4.82;;;3.10;;
36669;SDS011;22662;47.412;9.742;2022-08-25T16:24:40;4.28;;;3.15;;
36669;SDS011;22662;47.412;9.742;2022-08-25T16:27:11;3.58;;;3.05;;
36669;SDS011;22662;47.412;9.742;2022-08-25T16:29:39;4.30;;;3.17;;
36669;SDS011;22662;47.412;9.742;2022-08-25T16:32:08;3.92;;;3.00;;
36669;SDS011;22662;47.412;9.742;2022-08-25T16:34:36;3.10;;;2.80;;
36669;SDS011;22662;47.412;9.742;2022-08-25T16:37:03;3.50;;;2.60;;
36669;SDS011;22662;47.412;9.742;2022-08-25T16:39:29;6.88;;;3.10;;
36669;SDS011;22662;47.412;9.742;2022-08-25T16:41:55;4.18;;;2.67;;
36669;SDS011;22662;47.412;9.742;2022-08-25T16:44:20;3.45;;;2.83;;
36669;SDS011;22662;47.412;9.742;2022-08-25T16:46:47;5.82;;;2.90;;
36669;SDS011;22662;47.412;9.742;2022-08-25T16:49:13;5.05;;;2.92;;
36669;SDS011;22662;47.412;9.742;2022-08-25T16:51:39;4.15;;;2.80;;
36669;SDS011;22662;47.412;9.742;2022-08-25T16:54:07;3.60;;;2.80;;
36669;SDS011;22662;47.412;9.742;2022-08-25T16:56:53;3.28;;;2.95;;
36669;SDS011;22662;47.412;9.742;2022-08-25T16:59:19;6.18;;;3.20;;
36669;SDS011;22662;47.412;9.742;2022-08-25T17:01:46;3.15;;;2.90;;
36669;SDS011;22662;47.412;9.742;2022-08-25T17:04:11;4.60;;;2.70;;
36669;SDS011;22662;47.412;9.742;2022-08-25T17:06:38;5.97;;;3.13;;
36669;SDS011;22662;47.412;9.742;2022-08-25T17:09:07;4.60;;;2.90;;
36669;SDS011;22662;47.412;9.742;2022-08-25T17:11:40;3.33;;;3.03;;
36669;SDS011;22662;47.412;9.742;2022-08-25T17:14:10;5.90;;;2.80;;
36669;SDS011;22662;47.412;9.742;2022-08-25T17:16:38;4.03;;;3.08;;
36669;SDS011;22662;47.412;9.742;2022-08-25T17:19:05;3.30;;;2.92;;
36669;SDS011;22662;47.412;9.742;2022-08-25T17:21:34;4.60;;;3.38;;
36669;SDS011;22662;47.412;9.742;2022-08-25T17:24:02;3.92;;;2.78;;
36669;SDS011;22662;47.412;9.742;2022-08-25T17:26:28;4.60;;;3.15;;
36669;SDS011;22662;47.412;9.742;2022-08-25T17:28:55;4.68;;;3.03;;
36669;SDS011;22662;47.412;9.742;2022-08-25T17:31:22;3.22;;;2.53;;
36669;SDS011;22662;47.412;9.742;2022-08-25T17:33:48;3.25;;;2.78;;
36669;SDS011;22662;47.412;9.742;2022-08-25T17:36:14;4.60;;;2.90;;
36669;SDS011;22662;47.412;9.742;2022-08-25T17:38:40;3.72;;;2.92;;
36669;SDS011;22662;47.412;9.742;2022-08-25T17:41:07;3.50;;;3.20;;
36669;SDS011;22662;47.412;9.742;2022-08-25T17:43:35;3.40;;;3.10;;